createdAt,value
2019-02-06T00:00:43.861Z,60.12
2019-02-06T00:03:19.307Z,51.37
2019-02-06T00:05:54.523Z,58.65
2019-02-06T00:08:23.990Z,58.90
2019-02-06T00:10:54.964Z,61.48
2019-02-06T00:13:25.426Z,62.80
2019-02-06T00:16:03.912Z,57.75
2019-02-06T00:18:35.133Z,51.25
2019-02-06T00:21:06.115Z,45.67
2019-02-06T00:23:35.315Z,47.25
2019-02-06T00:26:04.753Z,51.70
2019-02-06T00:28:36.166Z,50.05
2019-02-06T00:31:07.087Z,56.90
2019-02-06T00:33:36.393Z,44.20
2019-02-06T00:36:08.848Z,47.13
2019-02-06T00:38:39.852Z,46.05
2019-02-06T00:41:12.139Z,44.45
2019-02-06T00:43:43.337Z,42.50
2019-02-06T00:46:13.043Z,46.48
2019-02-06T00:48:48.674Z,51.23
2019-02-06T00:51:17.888Z,54.77
2019-02-06T00:53:47.466Z,49.88
2019-02-06T00:56:18.268Z,47.53
2019-02-06T00:58:49.106Z,52.88
2019-02-06T01:01:20.784Z,48.50
2019-02-06T01:03:49.966Z,47.10
2019-02-06T01:06:23.554Z,42.35
2019-02-06T01:08:52.876Z,51.63
2019-02-06T01:11:22.482Z,49.53
2019-02-06T01:16:45.526Z,49.95
2019-02-06T01:19:18.045Z,52.43
2019-02-06T01:21:47.355Z,41.05
2019-02-06T01:24:18.242Z,42.63
2019-02-06T01:26:48.416Z,43.00
2019-02-06T01:29:17.652Z,44.77
2019-02-06T01:31:47.308Z,44.48
2019-02-06T01:34:16.688Z,43.87
2019-02-06T01:36:45.883Z,39.18
2019-02-06T01:39:19.377Z,41.63
2019-02-06T01:41:49.840Z,44.80
2019-02-06T01:44:19.036Z,45.58
2019-02-06T01:46:48.799Z,39.50
2019-02-06T01:49:23.580Z,46.65
2019-02-06T01:51:52.783Z,43.08
2019-02-06T01:54:23.594Z,46.13
2019-02-06T01:56:56.222Z,44.42
2019-02-06T01:59:26.114Z,38.55
2019-02-06T02:02:02.814Z,43.33
2019-02-06T02:04:33.367Z,43.58
2019-02-06T02:07:23.613Z,45.57
2019-02-06T02:09:53.270Z,37.58
2019-02-06T02:12:22.475Z,40.75
2019-02-06T02:14:53.283Z,47.87
2019-02-06T02:17:28.697Z,40.58
2019-02-06T02:19:58.582Z,45.10
2019-02-06T02:22:28.559Z,51.88
2019-02-06T02:25:02.479Z,44.25
2019-02-06T02:27:35.269Z,43.92
2019-02-06T02:30:08.593Z,40.55
2019-02-06T02:32:40.913Z,42.17
2019-02-06T02:35:12.383Z,46.20
2019-02-06T02:37:42.921Z,50.05
2019-02-06T02:40:12.851Z,49.38
2019-02-06T02:42:42.170Z,51.13
2019-02-06T02:45:16.805Z,52.47
2019-02-06T02:47:46.422Z,49.58
2019-02-06T02:50:15.592Z,59.37
2019-02-06T02:52:44.877Z,60.23
2019-02-06T02:55:14.410Z,54.50
2019-02-06T02:57:44.950Z,51.40
2019-02-06T03:00:23.059Z,54.00
2019-02-06T03:02:59.124Z,48.45
2019-02-06T03:05:31.637Z,46.92
2019-02-06T03:08:03.176Z,46.63
2019-02-06T03:10:36.949Z,52.23
2019-02-06T03:13:06.545Z,51.35
2019-02-06T03:15:36.203Z,49.03
2019-02-06T03:18:05.522Z,48.63
2019-02-06T03:20:37.491Z,47.53
2019-02-06T03:23:06.758Z,45.20
2019-02-06T03:25:36.399Z,45.53
2019-02-06T03:28:10.466Z,46.73
2019-02-06T03:30:39.681Z,46.77
2019-02-06T03:33:08.842Z,47.13
2019-02-06T03:35:38.103Z,49.03
2019-02-06T03:38:07.307Z,50.70
2019-02-06T03:40:39.649Z,50.53
2019-02-06T03:43:10.521Z,47.80
2019-02-06T03:45:39.770Z,46.60
2019-02-06T03:48:12.285Z,51.92
2019-02-06T03:50:44.750Z,43.45
2019-02-06T03:53:20.152Z,52.95
2019-02-06T03:55:51.176Z,53.68
2019-02-06T03:58:23.440Z,61.18
2019-02-06T04:00:52.638Z,66.25
2019-02-06T04:03:26.574Z,63.60
2019-02-06T04:05:57.481Z,65.85
2019-02-06T04:08:27.771Z,74.45
2019-02-06T04:10:57.060Z,73.20
2019-02-06T04:13:26.216Z,57.13
2019-02-06T04:15:57.116Z,65.50
2019-02-06T04:18:28.080Z,66.53
2019-02-06T04:20:57.366Z,65.17
2019-02-06T04:23:31.188Z,58.87
2019-02-06T04:26:05.111Z,59.18
2019-02-06T04:28:37.526Z,65.22
2019-02-06T04:31:07.544Z,64.70
2019-02-06T04:33:38.980Z,69.62
2019-02-06T04:36:09.882Z,61.33
2019-02-06T04:38:39.108Z,72.15
2019-02-06T04:41:08.283Z,77.20
2019-02-06T04:43:39.137Z,78.57
2019-02-06T04:46:09.993Z,75.75
2019-02-06T04:48:43.476Z,72.27
2019-02-06T04:51:19.930Z,73.15
2019-02-06T04:53:51.958Z,79.47
2019-02-06T04:56:21.932Z,77.45
2019-02-06T04:58:52.907Z,79.95
2019-02-06T05:01:22.099Z,80.62
2019-02-06T05:03:52.957Z,78.30
2019-02-06T05:06:22.489Z,82.97
2019-02-06T05:08:57.437Z,85.38
2019-02-06T05:11:26.655Z,96.72
2019-02-06T05:13:58.073Z,87.47
2019-02-06T05:16:29.218Z,100.78
2019-02-06T05:19:03.316Z,96.85
2019-02-06T05:21:32.534Z,98.05
2019-02-06T05:24:06.911Z,113.10
2019-02-06T05:26:37.232Z,115.70
2019-02-06T05:29:14.939Z,113.22
2019-02-06T05:31:45.370Z,127.38
2019-02-06T05:34:19.353Z,119.40
2019-02-06T05:36:50.908Z,106.90
2019-02-06T05:39:19.514Z,108.83
2019-02-06T05:41:52.714Z,105.92
2019-02-06T05:44:22.051Z,110.85
2019-02-06T05:46:53.510Z,103.20
2019-02-06T05:49:22.853Z,111.80
2019-02-06T05:51:52.054Z,121.07
2019-02-06T05:54:24.135Z,109.42
2019-02-06T05:56:58.043Z,117.50
2019-02-06T05:59:25.849Z,114.10
2019-02-06T06:02:01.410Z,122.22
2019-02-06T06:04:30.623Z,117.13
2019-02-06T06:07:00.299Z,110.97
2019-02-06T06:09:29.530Z,129.77
2019-02-06T06:11:58.916Z,129.17
2019-02-06T06:14:32.127Z,125.95
2019-02-06T06:17:02.990Z,130.85
2019-02-06T06:19:34.250Z,132.97
2019-02-06T06:22:03.313Z,126.97
2019-02-06T06:24:32.609Z,144.60
2019-02-06T06:27:02.273Z,119.08
2019-02-06T06:29:35.657Z,126.18
2019-02-06T06:32:07.520Z,139.97
2019-02-06T06:34:39.750Z,149.80
2019-02-06T06:37:08.951Z,126.90
2019-02-06T06:39:40.326Z,134.83
2019-02-06T06:42:15.656Z,120.15
2019-02-06T06:44:48.886Z,112.90
2019-02-06T06:47:18.281Z,134.95
2019-02-06T06:49:51.712Z,141.53
2019-02-06T06:52:25.627Z,123.42
2019-02-06T06:54:58.360Z,113.37
2019-02-06T06:57:27.696Z,144.77
2019-02-06T06:59:57.270Z,128.12
2019-02-06T07:02:28.169Z,137.37
2019-02-06T07:04:57.390Z,123.33
2019-02-06T07:07:32.404Z,135.40
2019-02-06T07:10:05.532Z,111.15
2019-02-06T07:12:34.740Z,125.60
2019-02-06T07:15:08.744Z,110.13
2019-02-06T07:17:39.690Z,134.70
2019-02-06T07:20:12.099Z,109.70
2019-02-06T07:22:45.748Z,120.20
2019-02-06T07:25:23.698Z,108.12
2019-02-06T07:27:59.764Z,107.80
2019-02-06T07:30:33.877Z,121.47
2019-02-06T07:33:03.171Z,111.47
2019-02-06T07:35:34.161Z,114.10
2019-02-06T07:38:03.367Z,117.82
2019-02-06T07:40:38.732Z,116.55
2019-02-06T07:43:11.976Z,118.00
2019-02-06T07:45:42.803Z,116.85
2019-02-06T07:48:12.060Z,126.20
2019-02-06T07:50:45.255Z,120.75
2019-02-06T07:53:21.736Z,139.62
2019-02-06T07:55:50.951Z,126.30
2019-02-06T07:58:20.121Z,136.97
2019-02-06T08:00:53.069Z,118.02
2019-02-06T08:03:25.402Z,1.02
2019-02-06T08:05:55.667Z,124.15
2019-02-06T08:08:35.666Z,119.17
2019-02-06T08:11:02.915Z,119.75
2019-02-06T08:13:33.278Z,110.80
2019-02-06T08:16:07.188Z,111.10
2019-02-06T08:18:38.585Z,122.22
2019-02-06T08:24:38.474Z,118.22
2019-02-06T08:27:07.678Z,126.80
2019-02-06T08:29:36.912Z,124.23
2019-02-06T08:32:06.741Z,118.57
2019-02-06T08:34:37.605Z,113.83
2019-02-06T08:41:30.899Z,113.22
2019-02-06T08:46:31.898Z,115.35
2019-02-06T08:49:02.857Z,114.67
2019-02-06T08:51:34.809Z,117.47
2019-02-06T08:54:04.183Z,112.10
2019-02-06T08:56:35.098Z,104.40
2019-02-06T08:59:07.308Z,103.00
2019-02-06T09:01:40.736Z,97.37
2019-02-06T09:04:14.420Z,88.35
2019-02-06T09:06:46.434Z,100.05
2019-02-06T09:09:18.146Z,97.00
2019-02-06T09:11:47.358Z,82.25
2019-02-06T09:14:21.738Z,90.27
2019-02-06T09:16:51.198Z,84.50
2019-02-06T09:19:20.986Z,94.97
2019-02-06T09:21:56.339Z,79.03
2019-02-06T09:24:27.182Z,85.42
2019-02-06T09:26:56.490Z,83.85
2019-02-06T09:29:25.678Z,89.13
2019-02-06T09:31:59.443Z,79.20
2019-02-06T09:34:29.066Z,81.10
2019-02-06T09:37:00.115Z,77.93
2019-02-06T09:39:29.328Z,72.85
2019-02-06T09:41:58.806Z,75.87
2019-02-06T09:44:32.256Z,69.57
2019-02-06T09:47:05.517Z,73.10
2019-02-06T09:49:41.651Z,70.52
2019-02-06T09:52:12.827Z,75.57
2019-02-06T09:54:42.107Z,68.67
2019-02-06T09:57:14.650Z,72.03
2019-02-06T09:59:47.138Z,66.25
2019-02-06T10:02:16.346Z,67.65
2019-02-06T10:04:48.217Z,70.67
2019-02-06T10:07:17.783Z,54.48
2019-02-06T10:09:47.060Z,61.48
2019-02-06T10:12:16.960Z,72.15
2019-02-06T10:14:49.419Z,64.22
2019-02-06T10:17:20.303Z,59.53
2019-02-06T10:19:52.265Z,55.73
2019-02-06T10:22:21.475Z,59.63
2019-02-06T10:24:52.307Z,58.07
2019-02-06T10:27:24.281Z,58.50
2019-02-06T10:29:54.011Z,41.85
2019-02-06T10:32:29.298Z,47.23
2019-02-06T10:35:01.572Z,51.60
2019-02-06T10:37:32.541Z,48.10
2019-02-06T10:40:10.103Z,47.30
2019-02-06T10:42:39.367Z,45.08
2019-02-06T10:45:21.046Z,49.90
2019-02-06T10:47:50.655Z,47.15
2019-02-06T10:50:25.519Z,44.13
2019-02-06T10:52:54.950Z,44.58
2019-02-06T10:55:28.311Z,45.98
2019-02-06T10:57:57.717Z,40.78
2019-02-06T11:00:32.575Z,48.00
2019-02-06T11:03:08.642Z,43.38
2019-02-06T11:05:37.949Z,39.95
2019-02-06T11:08:07.136Z,41.97
2019-02-06T11:10:39.057Z,42.83
2019-02-06T11:13:11.051Z,38.85
2019-02-06T11:15:40.326Z,36.05
2019-02-06T11:18:11.070Z,50.30
2019-02-06T11:20:40.934Z,39.30
2019-02-06T11:23:13.266Z,33.40
2019-02-06T11:25:42.481Z,35.92
2019-02-06T11:28:13.024Z,35.17
2019-02-06T11:30:45.476Z,32.87
2019-02-06T11:33:18.995Z,37.55
2019-02-06T11:35:47.726Z,39.83
2019-02-06T11:38:16.897Z,42.30
2019-02-06T11:40:46.115Z,36.98
2019-02-06T11:43:15.469Z,40.85
2019-02-06T11:45:44.680Z,42.43
2019-02-06T11:48:19.868Z,40.53
2019-02-06T11:50:52.347Z,42.05
2019-02-06T11:56:02.883Z,46.05
2019-02-06T11:58:32.358Z,51.65
2019-02-06T12:01:06.138Z,46.17
2019-02-06T12:03:35.422Z,46.23
2019-02-06T12:06:04.591Z,43.13
2019-02-06T12:08:36.771Z,43.97
2019-02-06T12:11:10.500Z,37.98
2019-02-06T12:13:39.706Z,38.28
2019-02-06T12:16:11.912Z,39.80
2019-02-06T12:18:42.336Z,39.13
2019-02-06T12:21:13.772Z,40.85
2019-02-06T12:23:46.238Z,40.05
2019-02-06T12:26:15.429Z,38.50
2019-02-06T12:28:44.623Z,45.03
2019-02-06T12:31:13.904Z,41.02
2019-02-06T12:33:43.243Z,34.45
2019-02-06T12:36:15.863Z,41.28
2019-02-06T12:38:53.482Z,35.95
2019-02-06T12:41:22.763Z,37.00
2019-02-06T12:43:51.976Z,35.03
2019-02-06T12:46:21.216Z,37.27
2019-02-06T12:48:53.122Z,32.13
2019-02-06T12:51:22.790Z,35.15
2019-02-06T12:53:52.051Z,34.17
2019-02-06T12:56:21.357Z,35.13
2019-02-06T12:58:52.187Z,35.00
2019-02-06T13:01:21.397Z,37.45
2019-02-06T13:03:56.539Z,33.48
2019-02-06T13:06:25.815Z,30.17
2019-02-06T13:09:00.772Z,28.53
2019-02-06T13:11:30.471Z,28.35
2019-02-06T13:14:05.804Z,29.55
2019-02-06T13:16:35.798Z,27.85
2019-02-06T13:19:05.391Z,32.13
2019-02-06T13:21:36.223Z,29.87
2019-02-06T13:24:08.047Z,32.20
2019-02-06T13:26:44.205Z,33.80
2019-02-06T13:29:13.707Z,35.38
2019-02-06T13:31:45.420Z,37.93
2019-02-06T13:34:14.333Z,29.35
2019-02-06T13:36:43.497Z,39.57
2019-02-06T13:39:14.343Z,33.65
2019-02-06T13:41:48.121Z,32.42
2019-02-06T13:44:17.705Z,34.25
2019-02-06T13:46:53.202Z,32.23
2019-02-06T13:49:21.607Z,33.70
2019-02-06T13:51:51.059Z,34.78
2019-02-06T13:54:20.373Z,34.48
2019-02-06T13:56:52.803Z,42.17
2019-02-06T13:59:22.094Z,37.58
2019-02-06T14:01:51.408Z,33.70
2019-02-06T14:04:23.904Z,38.17
2019-02-06T14:06:55.476Z,36.65
2019-02-06T14:09:26.670Z,45.08
2019-02-06T14:14:31.106Z,34.30
2019-02-06T14:17:02.079Z,39.58
2019-02-06T14:19:31.795Z,38.38
2019-02-06T14:22:04.284Z,44.27
2019-02-06T14:24:37.806Z,33.73
2019-02-06T14:27:29.920Z,35.65
2019-02-06T14:30:38.437Z,41.55
2019-02-06T14:33:32.048Z,39.48
2019-02-06T14:36:24.947Z,39.35
2019-02-06T14:39:10.464Z,38.30
2019-02-06T14:41:48.170Z,45.23
2019-02-06T14:44:38.820Z,51.02
2019-02-06T14:47:14.282Z,48.45
2019-02-06T14:50:05.095Z,55.80
2019-02-06T14:52:58.779Z,53.80
2019-02-06T14:55:42.238Z,56.13
2019-02-06T14:58:29.850Z,60.03
2019-02-06T15:04:37.535Z,53.63
2019-02-06T15:14:19.439Z,53.00
2019-02-06T15:17:04.554Z,61.75
2019-02-06T15:19:49.682Z,55.78
2019-02-06T15:22:27.206Z,62.25
2019-02-06T15:25:05.350Z,54.67
2019-02-06T15:28:16.670Z,54.65
2019-02-06T15:31:00.964Z,53.40
2019-02-06T15:33:42.358Z,56.10
2019-02-06T15:36:14.818Z,58.95
2019-02-06T15:38:52.037Z,63.35
2019-02-06T15:41:31.235Z,58.73
2019-02-06T15:44:13.601Z,55.83
2019-02-06T15:46:48.661Z,65.78
2019-02-06T15:49:41.886Z,53.20
2019-02-06T15:52:38.691Z,63.63
2019-02-06T15:55:25.173Z,69.82
2019-02-06T15:58:00.183Z,60.60
2019-02-06T16:00:48.945Z,49.50
2019-02-06T16:03:31.509Z,48.02
2019-02-06T16:06:14.328Z,49.88
2019-02-06T16:09:00.420Z,45.52
2019-02-06T16:11:42.625Z,42.08
2019-02-06T16:14:27.155Z,45.70
2019-02-06T16:17:17.692Z,46.70
2019-02-06T16:20:24.207Z,45.30
2019-02-06T16:23:02.339Z,48.02
2019-02-06T16:25:49.653Z,43.52
2019-02-06T16:28:42.683Z,46.73
2019-02-06T16:31:24.284Z,46.20
2019-02-06T16:34:16.175Z,51.13
2019-02-06T16:36:57.795Z,42.05
2019-02-06T16:39:30.253Z,38.80
2019-02-06T16:42:20.659Z,40.88
2019-02-06T16:44:53.125Z,42.93
2019-02-06T16:47:45.837Z,48.85
2019-02-06T16:50:23.768Z,45.05
2019-02-06T16:53:01.769Z,44.80
2019-02-06T16:55:52.089Z,43.30
2019-02-06T16:58:53.955Z,45.80
2019-02-06T17:04:29.005Z,42.45
2019-02-06T17:07:28.884Z,47.90
2019-02-06T17:10:31.145Z,45.52
2019-02-06T17:13:03.672Z,42.95
2019-02-06T17:16:11.821Z,50.90
2019-02-06T17:18:53.078Z,44.05
2019-02-06T17:21:36.235Z,46.42
2019-02-06T17:24:24.712Z,46.35
2019-02-06T17:26:57.260Z,46.30
2019-02-06T17:29:38.588Z,47.95
2019-02-06T17:32:46.140Z,51.30
2019-02-06T17:35:30.316Z,54.85
2019-02-06T17:38:20.562Z,48.73
2019-02-06T17:41:04.882Z,56.30
2019-02-06T17:43:37.454Z,57.65
2019-02-06T17:46:15.988Z,53.45
2019-02-06T17:51:34.328Z,62.70
2019-02-06T17:54:21.813Z,57.78
2019-02-06T17:56:51.088Z,55.88
2019-02-06T17:59:23.058Z,56.20
2019-02-06T18:01:52.432Z,57.15
2019-02-06T18:04:22.197Z,62.48
2019-02-06T18:06:57.880Z,63.33
2019-02-06T18:09:27.186Z,62.03
2019-02-06T18:11:58.406Z,63.65
2019-02-06T18:14:29.334Z,61.02
2019-02-06T18:17:00.331Z,58.55
2019-02-06T18:19:29.522Z,67.60
2019-02-06T18:22:00.324Z,62.13
2019-02-06T18:24:29.594Z,65.22
2019-02-06T18:26:58.902Z,73.13
2019-02-06T18:29:29.534Z,68.92
2019-02-06T18:31:58.727Z,64.55
2019-02-06T18:34:27.988Z,72.77
2019-02-06T18:36:57.764Z,62.08
2019-02-06T18:39:30.258Z,73.23
2019-02-06T18:41:59.842Z,71.47
2019-02-06T18:44:29.235Z,68.22
2019-02-06T18:46:59.725Z,65.40
2019-02-06T18:49:37.397Z,70.83
2019-02-06T18:52:07.100Z,72.62
2019-02-06T18:54:38.434Z,68.92
2019-02-06T18:57:08.700Z,78.85
2019-02-06T18:59:38.024Z,69.53
2019-02-06T19:02:13.462Z,72.25
2019-02-06T19:04:47.693Z,68.10
2019-02-06T19:07:18.524Z,75.00
2019-02-06T19:09:49.727Z,76.53
2019-02-06T19:12:22.206Z,73.10
2019-02-06T19:14:54.643Z,79.45
2019-02-06T19:17:27.862Z,81.78
2019-02-06T19:20:00.301Z,80.35
2019-02-06T19:22:33.515Z,81.63
2019-02-06T19:25:02.795Z,81.78
2019-02-06T19:27:33.429Z,88.35
2019-02-06T19:30:03.445Z,84.90
2019-02-06T19:32:34.541Z,72.30
2019-02-06T19:35:09.057Z,85.28
2019-02-06T19:37:42.563Z,90.00
2019-02-06T19:40:14.557Z,82.30
2019-02-06T19:42:46.555Z,78.10
2019-02-06T19:45:22.173Z,89.62
2019-02-06T19:47:57.261Z,76.50
2019-02-06T19:50:30.504Z,78.33
2019-02-06T19:52:59.840Z,77.08
2019-02-06T19:55:29.509Z,78.52
2019-02-06T19:57:58.906Z,78.10
2019-02-06T20:00:34.041Z,81.97
2019-02-06T20:03:08.219Z,87.95
2019-02-06T20:05:40.330Z,76.80
2019-02-06T20:08:32.343Z,78.47
2019-02-06T20:11:05.956Z,76.90
2019-02-06T20:13:38.402Z,87.15
2019-02-06T20:16:21.394Z,84.37
2019-02-06T20:18:52.447Z,75.75
2019-02-06T20:21:21.692Z,73.92
2019-02-06T20:23:52.490Z,74.30
2019-02-06T20:26:31.419Z,68.05
2019-02-06T20:29:04.120Z,74.60
2019-02-06T20:31:40.010Z,71.75
2019-02-06T20:34:09.366Z,77.37
2019-02-06T20:36:38.570Z,72.83
2019-02-06T20:39:10.261Z,76.10
2019-02-06T20:41:39.806Z,70.42
2019-02-06T20:44:12.032Z,73.17
2019-02-06T20:46:41.487Z,88.63
2019-02-06T20:49:16.620Z,75.47
2019-02-06T20:51:47.431Z,72.97
2019-02-06T20:54:16.982Z,72.63
2019-02-06T20:56:46.275Z,67.65
2019-02-06T20:59:15.480Z,73.00
2019-02-06T21:01:44.772Z,83.45
2019-02-06T21:04:16.857Z,79.70
2019-02-06T21:06:49.480Z,82.62
2019-02-06T21:09:23.378Z,85.75
2019-02-06T21:11:52.705Z,84.15
2019-02-06T21:14:21.935Z,88.63
2019-02-06T21:17:01.077Z,80.00
2019-02-06T21:19:50.570Z,87.80
2019-02-06T21:22:20.040Z,82.90
2019-02-06T21:24:52.780Z,84.72
2019-02-06T21:27:22.237Z,82.85
2019-02-06T21:29:53.123Z,87.50
2019-02-06T21:32:22.394Z,80.72
2019-02-06T21:34:51.845Z,91.00
2019-02-06T21:37:21.207Z,91.20
2019-02-06T21:39:50.405Z,82.73
2019-02-06T21:42:20.091Z,80.27
2019-02-06T21:44:56.735Z,75.20
2019-02-06T21:47:25.993Z,84.65
2019-02-06T21:49:58.133Z,78.90
2019-02-06T21:52:27.611Z,73.57
2019-02-06T21:54:56.917Z,82.70
2019-02-06T21:57:26.633Z,76.27
2019-02-06T21:59:55.917Z,84.72
2019-02-06T22:02:27.833Z,104.90
2019-02-06T22:04:58.175Z,86.50
2019-02-06T22:07:35.415Z,88.42
2019-02-06T22:10:12.275Z,84.70
2019-02-06T22:12:41.613Z,97.40
2019-02-06T22:15:14.398Z,103.00
2019-02-06T22:17:44.466Z,92.15
2019-02-06T22:22:43.781Z,94.62
2019-02-06T22:25:18.132Z,93.00
2019-02-06T22:27:50.625Z,100.05
2019-02-06T22:30:26.118Z,91.45
2019-02-06T22:33:05.427Z,108.15
2019-02-06T22:35:34.610Z,95.83
2019-02-06T22:38:03.800Z,110.80
2019-02-06T22:40:34.703Z,99.83
2019-02-06T22:43:03.973Z,111.83
2019-02-06T22:45:33.206Z,102.50
2019-02-06T22:48:02.868Z,101.55
2019-02-06T22:50:36.410Z,93.87
2019-02-06T22:53:08.607Z,96.65
2019-02-06T22:55:38.089Z,93.75
2019-02-06T22:58:07.434Z,88.92
2019-02-06T23:00:56.662Z,105.95
2019-02-06T23:03:38.166Z,108.60
2019-02-06T23:06:10.038Z,96.90
2019-02-06T23:08:39.847Z,92.97
2019-02-06T23:11:10.194Z,112.00
2019-02-06T23:13:41.207Z,105.65
2019-02-06T23:16:15.062Z,96.63
2019-02-06T23:18:46.670Z,99.62
2019-02-06T23:21:15.938Z,108.05
2019-02-06T23:23:45.112Z,99.30
2019-02-06T23:26:23.420Z,93.60
2019-02-06T23:28:52.816Z,97.60
2019-02-06T23:31:22.067Z,100.02
2019-02-06T23:33:53.348Z,115.83
2019-02-06T23:36:22.569Z,84.83
2019-02-06T23:38:51.730Z,92.80
2019-02-06T23:41:22.567Z,94.33
2019-02-06T23:43:53.383Z,85.20
2019-02-06T23:46:22.701Z,88.95
2019-02-06T23:48:52.275Z,88.42
2019-02-06T23:51:23.167Z,85.77
2019-02-06T23:53:54.145Z,82.80
2019-02-06T23:56:23.497Z,77.75
